Time;durP1;ratioP1;P1;durP2;ratioP2;P2;SDS_P1;SDS_P2;PMS_P1;PMS_P2;Temp;Humidity;BMP_temperature;BMP_pressure;BME280_temperature;BME280_humidity;BME280_pressure;Samples;Min_cycle;Max_cycle;Signal;HPM_P1;HPM_P2
2022/04/04 00:02:24;;;;;;;18.45;10.98;;;4.90;99.90;;;;;;5070620;28;20414;-73
2022/04/04 00:04:49;;;;;;;21.27;11.25;;;4.90;99.90;;;;;;5070104;28;20086;-73
2022/04/04 00:07:15;;;;;;;26.35;11.10;;;5.00;99.90;;;;;;5070313;28;20032;-73
2022/04/04 00:09:41;;;;;;;17.63;9.98;;;5.00;99.90;;;;;;5070209;28;20503;-73
2022/04/04 00:12:07;;;;;;;18.63;9.80;;;5.00;99.90;;;;;;5070124;28;20388;-73
2022/04/04 00:14:32;;;;;;;19.25;9.88;;;5.00;99.90;;;;;;5070252;28;20032;-73
2022/04/04 00:17:00;;;;;;;18.17;10.02;;;5.00;99.90;;;;;;5067722;28;20052;-73
2022/04/04 00:19:26;;;;;;;21.13;10.18;;;5.00;99.90;;;;;;5052748;28;20027;-73
2022/04/04 00:21:52;;;;;;;20.27;9.77;;;5.10;99.90;;;;;;5069699;28;20032;-73
2022/04/04 00:24:18;;;;;;;20.90;10.10;;;5.00;99.90;;;;;;5070308;28;20016;-73
2022/04/04 00:26:43;;;;;;;19.77;10.32;;;5.00;99.90;;;;;;5069788;28;20024;-73
2022/04/04 00:29:09;;;;;;;12.68;8.45;;;5.10;99.90;;;;;;5070054;28;20107;-73
2022/04/04 00:31:35;;;;;;;16.38;8.38;;;5.10;99.90;;;;;;5070312;28;20024;-73
2022/04/04 00:34:01;;;;;;;15.32;8.25;;;5.10;99.90;;;;;;5052038;28;20028;-74
2022/04/04 00:36:27;;;;;;;17.38;8.70;;;5.10;99.90;;;;;;5069897;28;20509;-74
2022/04/04 00:38:52;;;;;;;16.48;8.63;;;5.10;99.90;;;;;;5070317;28;20040;-73
2022/04/04 00:41:18;;;;;;;13.32;7.60;;;5.10;99.90;;;;;;5070819;28;20453;-73
2022/04/04 00:43:44;;;;;;;14.10;7.80;;;5.10;99.90;;;;;;5070136;28;20459;-73
2022/04/04 00:46:10;;;;;;;13.73;7.78;;;5.10;99.90;;;;;;5069885;28;20388;-73
2022/04/04 00:48:35;;;;;;;18.08;7.55;;;5.20;99.90;;;;;;5070173;28;20025;-73
2022/04/04 00:51:03;;;;;;;17.50;7.80;;;5.20;99.90;;;;;;5070256;28;20067;-73
2022/04/04 00:53:30;;;;;;;17.90;8.50;;;5.20;99.90;;;;;;5070029;28;20507;-73
2022/04/04 00:55:56;;;;;;;17.80;7.68;;;5.30;99.90;;;;;;5069688;28;20480;-73
2022/04/04 00:58:22;;;;;;;25.73;8.27;;;5.30;99.90;;;;;;5069730;28;20039;-73
2022/04/04 01:00:48;;;;;;;18.55;7.97;;;5.30;99.90;;;;;;5069833;28;20021;-74
2022/04/04 01:03:15;;;;;;;16.52;8.02;;;5.30;99.90;;;;;;5069988;28;20040;-74
2022/04/04 01:05:44;;;;;;;18.58;8.52;;;5.40;99.90;;;;;;5069837;28;20020;-74
2022/04/04 01:08:14;;;;;;;17.60;8.45;;;5.40;99.90;;;;;;5069366;28;20028;-73
2022/04/04 01:10:41;;;;;;;14.38;7.95;;;5.40;99.90;;;;;;5064921;28;20021;-73
2022/04/04 01:13:07;;;;;;;14.68;8.40;;;5.40;99.90;;;;;;5067678;28;20063;-74
2022/04/04 01:15:33;;;;;;;17.00;8.68;;;5.50;99.90;;;;;;5069653;28;20063;-74
2022/04/04 01:17:59;;;;;;;20.67;9.25;;;5.50;99.90;;;;;;5057610;28;20053;-74
2022/04/04 01:20:25;;;;;;;20.23;8.70;;;5.50;99.90;;;;;;5069381;28;20028;-73
2022/04/04 01:22:51;;;;;;;19.85;8.50;;;5.50;99.90;;;;;;5051437;28;20123;-73
2022/04/04 01:25:23;;;;;;;17.00;8.95;;;5.60;99.90;;;;;;5069694;28;20044;-73
2022/04/04 01:27:49;;;;;;;18.75;9.27;;;5.60;99.90;;;;;;5069196;28;20396;-74
2022/04/04 01:30:14;;;;;;;20.48;9.07;;;5.60;99.90;;;;;;5070082;28;20029;-74
2022/04/04 01:32:40;;;;;;;20.10;9.25;;;5.70;99.90;;;;;;5069298;28;20538;-73
2022/04/04 01:35:06;;;;;;;17.88;8.82;;;5.70;99.90;;;;;;5068806;28;20047;-74
2022/04/04 01:37:32;;;;;;;18.85;9.65;;;5.70;99.90;;;;;;5069258;28;20184;-73
2022/04/04 01:39:58;;;;;;;17.98;9.38;;;5.70;99.90;;;;;;5069813;28;20170;-74
2022/04/04 01:42:24;;;;;;;20.88;10.32;;;5.70;99.90;;;;;;5072475;28;20031;-74
2022/04/04 01:44:50;;;;;;;22.73;10.10;;;5.80;99.90;;;;;;5072883;28;20020;-74
2022/04/04 01:47:15;;;;;;;22.33;10.77;;;5.70;99.90;;;;;;5073132;28;20116;-73
2022/04/04 01:49:41;;;;;;;22.05;11.13;;;5.70;99.90;;;;;;5073217;28;20024;-73
2022/04/04 01:52:07;;;;;;;21.23;10.88;;;5.70;99.90;;;;;;5072976;28;20021;-74
2022/04/04 01:54:32;;;;;;;20.42;11.18;;;5.70;99.90;;;;;;5072849;28;20017;-74
2022/04/04 01:56:58;;;;;;;21.98;10.75;;;5.70;99.90;;;;;;5072890;28;20103;-74
2022/04/04 01:59:23;;;;;;;19.45;10.38;;;5.70;99.90;;;;;;5069671;28;20036;-74
2022/04/04 02:01:49;;;;;;;23.80;11.50;;;5.70;99.90;;;;;;5072721;28;20392;-74
2022/04/04 02:04:15;;;;;;;23.30;10.95;;;5.80;99.90;;;;;;5072311;28;20024;-74
2022/04/04 02:06:40;;;;;;;24.10;10.77;;;5.80;99.90;;;;;;5072991;28;20099;-74
2022/04/04 02:09:07;;;;;;;21.38;10.07;;;5.80;99.90;;;;;;5072147;28;20036;-73
2022/04/04 02:11:32;;;;;;;16.65;10.43;;;5.80;99.90;;;;;;5072729;28;20028;-73
2022/04/04 02:13:59;;;;;;;23.05;10.57;;;5.80;99.90;;;;;;5072215;28;20017;-73
2022/04/04 02:16:25;;;;;;;21.80;10.52;;;5.80;99.90;;;;;;5072514;28;20048;-74
2022/04/04 02:18:51;;;;;;;21.40;10.88;;;5.80;99.90;;;;;;5068119;28;20043;-73
2022/04/04 02:21:16;;;;;;;25.45;11.35;;;5.80;99.90;;;;;;5072391;28;20105;-73
2022/04/04 02:23:42;;;;;;;20.13;11.43;;;5.80;99.90;;;;;;5071901;28;20077;-74
2022/04/04 02:26:08;;;;;;;25.05;11.32;;;5.80;99.90;;;;;;5072241;28;20024;-73
2022/04/04 02:28:33;;;;;;;23.88;11.00;;;5.90;99.90;;;;;;5072058;28;20029;-73
2022/04/04 02:30:59;;;;;;;23.50;11.38;;;5.80;99.90;;;;;;5072259;28;20032;-73
2022/04/04 02:33:25;;;;;;;24.92;11.48;;;5.90;99.90;;;;;;5071790;28;20040;-73
2022/04/04 02:35:52;;;;;;;22.10;11.50;;;5.90;99.90;;;;;;5071965;28;20079;-73
2022/04/04 02:38:19;;;;;;;22.02;11.32;;;5.90;99.90;;;;;;5071736;28;21235;-73
2022/04/04 02:40:45;;;;;;;22.50;11.38;;;5.90;99.90;;;;;;5072561;28;20016;-73
2022/04/04 02:43:10;;;;;;;21.30;11.00;;;5.90;99.90;;;;;;5071863;28;20023;-73
2022/04/04 02:45:36;;;;;;;23.25;11.15;;;5.90;99.90;;;;;;5071643;28;20413;-73
2022/04/04 02:48:02;;;;;;;20.88;11.43;;;6.00;99.90;;;;;;5071612;28;20024;-73
2022/04/04 02:50:28;;;;;;;23.08;11.30;;;6.00;99.90;;;;;;5071283;28;20032;-73
2022/04/04 02:52:54;;;;;;;22.40;11.20;;;6.00;99.90;;;;;;5071632;28;20032;-73
2022/04/04 02:58:04;;;;;;;21.23;11.35;;;6.10;99.90;;;;;;5070373;28;20129;-73
2022/04/04 03:00:30;;;;;;;23.50;11.13;;;6.10;99.90;;;;;;5070768;28;20060;-73
2022/04/04 03:02:56;;;;;;;22.13;11.40;;;6.10;99.90;;;;;;5071147;28;20025;-73
2022/04/04 03:05:22;;;;;;;23.85;12.02;;;6.10;99.90;;;;;;5071279;28;20020;-73
2022/04/04 03:07:49;;;;;;;27.40;11.93;;;6.10;99.90;;;;;;5071467;28;20112;-73
2022/04/04 03:10:15;;;;;;;21.30;10.85;;;6.20;99.90;;;;;;5071062;28;20036;-73
2022/04/04 03:12:45;;;;;;;24.88;11.32;;;6.20;99.90;;;;;;5070879;28;20031;-73
2022/04/04 03:15:13;;;;;;;24.42;11.85;;;6.20;99.90;;;;;;5071287;28;20097;-73
2022/04/04 03:17:39;;;;;;;22.52;11.68;;;6.20;99.90;;;;;;5070841;28;20044;-73
2022/04/04 03:20:09;;;;;;;25.92;12.10;;;6.20;99.90;;;;;;5071445;28;20052;-73
2022/04/04 03:22:37;;;;;;;21.92;11.52;;;6.20;99.90;;;;;;5071278;28;20447;-73
2022/04/04 03:25:03;;;;;;;25.85;12.27;;;6.20;99.90;;;;;;5071082;28;20048;-73
2022/04/04 03:27:28;;;;;;;25.73;12.20;;;6.20;99.90;;;;;;5070772;28;20029;-73
2022/04/04 03:29:54;;;;;;;24.48;11.75;;;6.20;99.90;;;;;;5070561;28;20625;-73
2022/04/04 03:32:20;;;;;;;24.00;11.57;;;6.20;99.90;;;;;;5070367;28;20060;-73
2022/04/04 03:34:45;;;;;;;22.67;11.70;;;6.20;99.90;;;;;;5070678;28;20425;-73
2022/04/04 03:37:11;;;;;;;27.08;12.60;;;6.20;99.90;;;;;;5070966;28;20043;-73
2022/04/04 03:39:37;;;;;;;24.00;12.05;;;6.30;99.90;;;;;;5070927;28;20052;-73
2022/04/04 03:42:03;;;;;;;22.92;12.45;;;6.30;99.90;;;;;;5070195;28;20078;-73
2022/04/04 03:44:28;;;;;;;21.75;11.68;;;6.30;99.90;;;;;;5070768;28;20056;-73
2022/04/04 03:46:54;;;;;;;23.60;11.93;;;6.30;99.90;;;;;;5070768;28;20032;-73
2022/04/04 03:49:20;;;;;;;24.33;11.63;;;6.30;99.90;;;;;;5070864;28;20103;-73
2022/04/04 03:51:45;;;;;;;25.10;12.00;;;6.30;99.90;;;;;;5070259;28;20028;-73
2022/04/04 03:54:12;;;;;;;18.58;11.05;;;6.30;99.90;;;;;;5070811;28;20448;-73
2022/04/04 03:56:38;;;;;;;24.95;11.05;;;6.30;99.90;;;;;;5071183;28;20108;-73
2022/04/04 03:59:04;;;;;;;22.88;11.57;;;6.30;99.90;;;;;;5070302;28;20124;-73
2022/04/04 04:01:30;;;;;;;23.08;10.75;;;6.30;99.90;;;;;;5069952;28;20035;-73
2022/04/04 04:03:56;;;;;;;20.00;11.40;;;6.30;99.90;;;;;;5070160;28;20077;-73
2022/04/04 04:06:22;;;;;;;24.30;10.73;;;6.30;99.90;;;;;;5070540;28;20017;-73
2022/04/04 04:08:48;;;;;;;20.02;10.10;;;6.30;99.90;;;;;;5070218;28;20422;-73
2022/04/04 04:11:15;;;;;;;19.98;10.43;;;6.40;99.90;;;;;;5066304;28;20036;-73
2022/04/04 04:13:43;;;;;;;19.88;10.50;;;6.40;99.90;;;;;;5064729;28;20028;-73
2022/04/04 04:16:09;;;;;;;19.60;9.93;;;6.30;99.90;;;;;;5068028;28;20496;-71
2022/04/04 04:18:38;;;;;;;23.25;10.38;;;6.40;99.90;;;;;;5068991;28;20036;-73
2022/04/04 04:21:05;;;;;;;17.02;9.80;;;6.40;99.90;;;;;;5065305;28;20039;-72
2022/04/04 04:23:30;;;;;;;18.80;9.70;;;6.40;99.90;;;;;;5063516;28;20024;-73
2022/04/04 04:25:56;;;;;;;17.77;9.93;;;6.40;99.90;;;;;;5068216;28;20016;-72
2022/04/04 04:28:22;;;;;;;24.13;10.65;;;6.40;99.90;;;;;;5066213;28;20021;-72
2022/04/04 04:30:47;;;;;;;17.98;9.60;;;6.40;99.90;;;;;;5066123;28;20039;-73
2022/04/04 04:33:13;;;;;;;23.88;10.27;;;6.40;99.90;;;;;;5066258;28;20118;-73
2022/04/04 04:35:40;;;;;;;19.00;10.35;;;6.40;99.90;;;;;;5063271;28;20029;-73
2022/04/04 04:38:05;;;;;;;17.95;9.07;;;6.40;99.90;;;;;;5068696;28;20025;-73
2022/04/04 04:40:31;;;;;;;21.92;8.80;;;6.40;99.90;;;;;;5065909;28;20028;-73
2022/04/04 04:42:58;;;;;;;17.25;9.25;;;6.40;99.90;;;;;;5066061;28;20013;-72
2022/04/04 04:45:24;;;;;;;21.60;9.55;;;6.50;99.90;;;;;;5063441;28;20082;-72
2022/04/04 04:47:50;;;;;;;18.20;9.90;;;6.50;99.90;;;;;;5063236;28;20033;-72
2022/04/04 04:50:19;;;;;;;20.27;9.32;;;6.50;99.90;;;;;;5063073;28;20026;-73
2022/04/04 04:52:46;;;;;;;16.65;8.65;;;6.50;99.90;;;;;;5058889;28;20419;-74
2022/04/04 04:55:13;;;;;;;25.70;9.30;;;6.50;99.90;;;;;;5053851;28;20025;-73
2022/04/04 04:57:39;;;;;;;18.48;9.07;;;6.50;99.90;;;;;;5044077;28;20032;-73
2022/04/04 05:00:07;;;;;;;19.20;9.35;;;6.50;99.90;;;;;;5059613;28;20028;-73
2022/04/04 05:02:34;;;;;;;16.88;9.32;;;6.50;99.90;;;;;;5066130;28;20028;-73
2022/04/04 05:05:00;;;;;;;21.63;9.43;;;6.50;99.90;;;;;;5065543;28;20024;-74
2022/04/04 05:07:26;;;;;;;17.65;9.65;;;6.50;99.90;;;;;;5066684;28;20029;-72
2022/04/04 05:09:52;;;;;;;18.58;9.40;;;6.50;99.90;;;;;;5057876;28;20090;-73
2022/04/04 05:12:17;;;;;;;15.95;9.23;;;6.50;99.90;;;;;;5059194;28;20031;-74
2022/04/04 05:14:43;;;;;;;23.83;10.32;;;6.50;99.90;;;;;;5055297;28;20021;-72
2022/04/04 05:17:08;;;;;;;22.98;10.60;;;6.50;99.90;;;;;;5058175;28;20055;-73
2022/04/04 05:19:34;;;;;;;19.95;10.48;;;6.50;99.90;;;;;;5051867;28;20083;-73
2022/04/04 05:22:00;;;;;;;19.88;10.35;;;6.50;99.90;;;;;;5064195;28;20059;-73
2022/04/04 05:24:27;;;;;;;21.48;10.20;;;6.60;99.90;;;;;;5052351;28;20052;-73
2022/04/04 05:26:54;;;;;;;17.92;10.60;;;6.60;99.90;;;;;;5067062;28;20025;-73
2022/04/04 05:29:19;;;;;;;25.02;10.90;;;6.60;99.90;;;;;;5062413;28;20155;-73
2022/04/04 05:31:45;;;;;;;18.40;10.55;;;6.60;99.90;;;;;;5066034;28;20700;-73
2022/04/04 05:34:11;;;;;;;20.35;11.10;;;6.60;99.90;;;;;;5062491;28;20074;-72
2022/04/04 05:36:37;;;;;;;19.85;10.88;;;6.60;99.90;;;;;;5066757;28;20029;-72
2022/04/04 05:39:05;;;;;;;18.70;11.38;;;6.50;99.90;;;;;;5056397;28;20159;-73
2022/04/04 05:41:30;;;;;;;21.27;11.48;;;6.50;99.90;;;;;;5072432;28;20354;-73
2022/04/04 05:43:56;;;;;;;21.92;11.80;;;6.50;99.90;;;;;;5072959;28;20032;-72
2022/04/04 05:46:22;;;;;;;28.25;12.57;;;6.50;99.90;;;;;;5071137;28;20174;-73
2022/04/04 05:48:48;;;;;;;24.02;13.57;;;6.50;99.90;;;;;;5070782;28;20024;-73
2022/04/04 05:51:16;;;;;;;23.65;12.95;;;6.50;99.90;;;;;;5062730;28;20029;-73
2022/04/04 05:53:42;;;;;;;23.65;12.98;;;6.50;99.90;;;;;;5070897;28;20021;-73
2022/04/04 05:56:08;;;;;;;22.52;12.75;;;6.50;99.90;;;;;;5068680;28;20028;-72
2022/04/04 05:58:35;;;;;;;22.05;13.48;;;6.40;99.90;;;;;;5071535;28;20650;-73
2022/04/04 06:01:01;;;;;;;20.10;12.35;;;6.40;99.90;;;;;;5072893;28;20027;-73
2022/04/04 06:03:27;;;;;;;25.88;13.57;;;6.40;99.90;;;;;;5072315;28;20028;-73
2022/04/04 06:05:52;;;;;;;21.55;12.82;;;6.30;99.90;;;;;;5072732;28;20494;-72
2022/04/04 06:08:18;;;;;;;27.10;13.65;;;6.30;99.90;;;;;;5068490;28;20479;-72
2022/04/04 06:10:47;;;;;;;20.70;12.82;;;6.30;99.90;;;;;;5066260;28;20103;-72
2022/04/04 06:13:17;;;;;;;24.08;13.18;;;6.30;99.90;;;;;;5069279;28;20040;-72
2022/04/04 06:15:43;;;;;;;17.50;11.13;;;6.30;99.90;;;;;;5064298;28;20024;-72
2022/04/04 06:18:09;;;;;;;22.25;11.68;;;6.30;99.90;;;;;;5059810;28;20043;-72
2022/04/04 06:20:35;;;;;;;23.13;12.82;;;6.30;99.90;;;;;;5068473;28;20039;-72
2022/04/04 06:23:01;;;;;;;22.38;11.77;;;6.30;99.90;;;;;;5068503;28;20023;-72
2022/04/04 06:25:27;;;;;;;27.10;13.13;;;6.30;99.90;;;;;;5078571;28;20371;-73
2022/04/04 06:27:53;;;;;;;25.48;12.13;;;6.30;99.90;;;;;;5056111;28;20024;-72
2022/04/04 06:30:19;;;;;;;24.83;12.05;;;6.40;99.90;;;;;;5067625;28;20017;-72
2022/04/04 06:32:45;;;;;;;30.70;12.30;;;6.40;99.90;;;;;;5072074;28;20035;-72
2022/04/04 06:35:14;;;;;;;22.90;11.10;;;6.40;99.90;;;;;;5072176;28;20083;-72
2022/04/04 06:37:41;;;;;;;19.70;11.20;;;6.40;99.90;;;;;;5072146;28;20459;-72
2022/04/04 06:40:07;;;;;;;25.65;10.98;;;6.40;99.90;;;;;;5065012;28;20025;-72
2022/04/04 06:42:37;;;;;;;24.10;9.65;;;6.50;99.90;;;;;;5044420;28;20136;-72
2022/04/04 06:45:03;;;;;;;21.92;8.05;;;6.50;99.90;;;;;;5069809;28;20028;-72
2022/04/04 06:47:30;;;;;;;18.17;5.97;;;6.50;99.90;;;;;;5071709;28;20130;-72
2022/04/04 06:49:55;;;;;;;12.15;4.85;;;6.50;99.90;;;;;;5070424;28;20043;-72
2022/04/04 06:52:21;;;;;;;12.02;4.75;;;6.60;99.90;;;;;;5065727;28;20028;-72
2022/04/04 06:54:47;;;;;;;11.55;4.78;;;6.60;99.90;;;;;;5059234;28;20027;-72
2022/04/04 06:57:13;;;;;;;14.00;4.53;;;6.70;99.90;;;;;;5067858;28;20120;-72
2022/04/04 06:59:38;;;;;;;15.30;5.20;;;6.70;99.90;;;;;;5061508;28;20099;-72
2022/04/04 07:02:04;;;;;;;14.00;4.72;;;6.70;99.90;;;;;;5051992;28;20017;-72
2022/04/04 07:04:30;;;;;;;22.42;4.70;;;6.70;99.90;;;;;;5059311;28;20028;-74
2022/04/04 07:06:55;;;;;;;13.35;5.00;;;6.70;99.90;;;;;;5059673;28;20432;-72
2022/04/04 07:09:23;;;;;;;14.15;4.95;;;6.70;99.90;;;;;;5066318;28;20064;-72
2022/04/04 07:11:51;;;;;;;13.15;5.13;;;6.70;99.90;;;;;;5059781;28;20017;-72
2022/04/04 07:14:17;;;;;;;11.73;4.97;;;6.60;99.90;;;;;;5059933;28;20489;-71
2022/04/04 07:16:42;;;;;;;14.40;5.10;;;6.60;99.90;;;;;;5066566;28;20054;-73
2022/04/04 07:19:14;;;;;;;16.17;5.25;;;6.50;99.90;;;;;;5065417;28;20061;-72
2022/04/04 07:21:39;;;;;;;18.17;5.28;;;6.50;99.90;;;;;;5065834;28;20040;-73
2022/04/04 07:24:06;;;;;;;15.52;5.90;;;6.40;99.90;;;;;;5060410;28;20476;-71
2022/04/04 07:26:31;;;;;;;17.00;6.07;;;6.30;99.90;;;;;;5060063;28;20021;-72
2022/04/04 07:28:57;;;;;;;15.43;6.85;;;6.30;99.90;;;;;;5064008;28;20017;-72
2022/04/04 07:31:22;;;;;;;14.63;6.82;;;6.20;99.90;;;;;;5052975;28;20040;-72
2022/04/04 07:33:48;;;;;;;17.20;6.20;;;6.20;99.90;;;;;;5058808;28;20031;-71
2022/04/04 07:36:13;;;;;;;12.35;5.93;;;6.20;99.90;;;;;;5051142;28;20040;-72
2022/04/04 07:38:39;;;;;;;14.93;6.45;;;6.10;99.90;;;;;;5055432;28;20120;-70
2022/04/04 07:41:04;;;;;;;16.08;7.10;;;6.10;99.90;;;;;;5070721;28;20401;-71
2022/04/04 07:43:30;;;;;;;17.77;7.15;;;6.00;99.90;;;;;;5068188;28;20051;-71
2022/04/04 07:45:56;;;;;;;16.25;7.38;;;6.00;99.90;;;;;;5066340;28;20422;-72
2022/04/04 07:48:21;;;;;;;17.52;6.72;;;6.00;99.90;;;;;;5058866;28;20025;-71
2022/04/04 07:50:47;;;;;;;18.65;7.30;;;6.00;99.90;;;;;;5065907;28;20033;-71
2022/04/04 07:53:13;;;;;;;19.45;7.60;;;6.00;99.90;;;;;;5061698;28;20535;-71
2022/04/04 07:55:40;;;;;;;18.85;7.13;;;6.00;99.90;;;;;;5064919;28;20043;-72
2022/04/04 07:58:05;;;;;;;14.48;7.28;;;6.00;99.90;;;;;;5063210;28;20035;-71
2022/04/04 08:00:32;;;;;;;16.73;7.65;;;6.00;99.90;;;;;;5062035;28;20107;-71
2022/04/04 08:02:58;;;;;;;19.52;7.82;;;6.00;99.90;;;;;;5046622;28;20035;-72
2022/04/04 08:05:24;;;;;;;19.13;7.63;;;6.00;99.90;;;;;;5070666;28;20385;-71
2022/04/04 08:07:51;;;;;;;15.43;7.43;;;6.00;99.90;;;;;;5070873;28;20434;-71
2022/04/04 08:10:21;;;;;;;18.98;8.15;;;6.00;99.90;;;;;;5065362;28;20028;-72
2022/04/04 08:12:49;;;;;;;19.55;7.75;;;6.10;99.90;;;;;;5062173;28;20017;-70
2022/04/04 08:15:15;;;;;;;23.83;8.20;;;6.10;99.90;;;;;;5068074;28;20052;-71
2022/04/04 08:17:41;;;;;;;20.40;7.97;;;6.10;99.90;;;;;;5054866;28;20077;-71
2022/04/04 08:20:08;;;;;;;21.77;8.05;;;6.10;99.90;;;;;;5060440;28;20224;-72
2022/04/04 08:22:52;;;;;;;19.65;8.30;;;6.10;99.90;;;;;;5059426;28;20116;-71
2022/04/04 08:25:18;;;;;;;21.90;8.85;;;6.10;99.90;;;;;;5070576;28;20107;-72
2022/04/04 08:27:44;;;;;;;16.67;7.43;;;6.10;99.90;;;;;;5070250;28;20111;-71
2022/04/04 08:30:12;;;;;;;15.77;6.85;;;6.10;99.90;;;;;;5070258;28;20016;-72
2022/04/04 08:32:38;;;;;;;25.90;7.65;;;6.10;99.90;;;;;;5070679;28;20081;-72
2022/04/04 08:35:06;;;;;;;19.63;9.00;;;6.20;99.90;;;;;;5070443;28;20298;-71
2022/04/04 08:37:33;;;;;;;25.10;7.55;;;6.20;99.90;;;;;;5066974;28;20473;-72
2022/04/04 08:39:59;;;;;;;17.98;7.10;;;6.20;99.90;;;;;;5060687;28;20021;-72
2022/04/04 08:42:27;;;;;;;15.27;6.68;;;6.20;99.90;;;;;;5057740;28;20021;-72
2022/04/04 08:44:55;;;;;;;21.27;7.32;;;6.30;99.90;;;;;;5052345;28;20031;-71
2022/04/04 08:47:22;;;;;;;21.15;7.45;;;6.30;99.90;;;;;;5052147;28;20021;-72
2022/04/04 08:49:49;;;;;;;22.55;7.13;;;6.30;99.90;;;;;;5055246;28;20476;-71
2022/04/04 08:52:15;;;;;;;19.10;6.78;;;6.30;99.90;;;;;;5061632;28;20025;-71
2022/04/04 08:54:41;;;;;;;19.88;6.35;;;6.40;99.90;;;;;;5069166;28;20056;-71
2022/04/04 08:57:07;;;;;;;24.35;7.57;;;6.40;99.90;;;;;;5066929;28;20052;-72
2022/04/04 08:59:32;;;;;;;23.60;7.10;;;6.40;99.90;;;;;;5066645;28;20020;-71
2022/04/04 09:01:58;;;;;;;27.58;6.90;;;6.40;99.90;;;;;;5068114;28;20052;-71
2022/04/04 09:04:23;;;;;;;22.15;6.68;;;6.40;99.90;;;;;;5056016;28;20052;-71
2022/04/04 09:06:54;;;;;;;19.77;6.32;;;6.50;99.90;;;;;;5073966;28;20468;-71
2022/04/04 09:09:23;;;;;;;20.80;6.65;;;6.50;99.90;;;;;;5074076;28;20102;-71
2022/04/04 09:12:03;;;;;;;20.30;5.75;;;6.50;99.90;;;;;;5063846;28;20037;-72
2022/04/04 09:14:29;;;;;;;17.52;6.00;;;6.50;99.90;;;;;;5067795;28;20122;-71
2022/04/04 09:16:55;;;;;;;18.48;5.88;;;6.50;99.90;;;;;;5073969;28;20103;-71
2022/04/04 09:19:29;;;;;;;28.13;6.43;;;6.60;99.90;;;;;;5042236;28;20040;-71
2022/04/04 09:21:56;;;;;;;20.60;5.70;;;6.60;99.90;;;;;;5074029;28;20017;-72
2022/04/04 09:24:21;;;;;;;16.48;5.53;;;6.60;99.90;;;;;;5054775;28;20082;-72
2022/04/04 09:26:48;;;;;;;22.17;5.35;;;6.60;99.90;;;;;;5073595;28;20032;-71
2022/04/04 09:29:24;;;;;;;19.02;6.10;;;6.70;99.90;;;;;;5074265;28;20036;-71
2022/04/04 09:32:05;;;;;;;19.30;5.47;;;6.70;99.90;;;;;;5073796;28;20039;-71
2022/04/04 09:34:50;;;;;;;15.80;5.05;;;6.70;99.90;;;;;;5073555;28;20111;-71
2022/04/04 09:37:16;;;;;;;19.40;4.72;;;6.70;99.90;;;;;;5073396;28;20376;-70
2022/04/04 09:39:42;;;;;;;14.73;4.55;;;6.70;99.90;;;;;;5073110;28;20395;-70
2022/04/04 09:42:19;;;;;;;12.32;4.15;;;6.70;99.90;;;;;;5073478;28;20027;-72
2022/04/04 09:44:57;;;;;;;15.90;4.38;;;6.70;99.90;;;;;;5072081;28;20056;-71
2022/04/04 09:47:23;;;;;;;21.20;4.32;;;6.70;99.90;;;;;;5071688;28;20035;-70
2022/04/04 09:49:49;;;;;;;17.92;4.60;;;6.80;99.90;;;;;;5072047;28;20027;-71
2022/04/04 09:52:14;;;;;;;14.05;4.22;;;6.80;99.90;;;;;;5073208;28;20755;-70
2022/04/04 09:54:42;;;;;;;14.10;4.28;;;6.80;99.90;;;;;;5071492;28;20123;-70
2022/04/04 09:57:11;;;;;;;19.30;4.38;;;6.80;99.90;;;;;;5072316;28;20020;-70
2022/04/04 09:59:38;;;;;;;22.48;4.57;;;6.80;99.90;;;;;;5070827;28;20104;-71
2022/04/04 10:02:05;;;;;;;17.58;4.18;;;6.80;99.90;;;;;;5041432;28;20110;-70
2022/04/04 10:04:33;;;;;;;14.43;3.88;;;6.80;99.90;;;;;;5071763;28;20024;-71
2022/04/04 10:07:06;;;;;;;16.85;3.80;;;6.90;99.90;;;;;;5063695;28;20472;-71
2022/04/04 10:09:32;;;;;;;17.88;4.35;;;6.90;99.90;;;;;;5066761;28;20522;-71
2022/04/04 10:11:58;;;;;;;19.27;4.32;;;6.90;99.90;;;;;;5065730;28;20024;-71
2022/04/04 10:14:25;;;;;;;17.35;4.47;;;6.90;99.90;;;;;;5068564;28;20395;-71
2022/04/04 10:16:54;;;;;;;12.93;3.95;;;7.00;99.90;;;;;;5063113;28;20046;-71
2022/04/04 10:19:21;;;;;;;15.80;4.15;;;7.00;99.90;;;;;;5066576;28;20427;-72
2022/04/04 10:21:47;;;;;;;17.83;4.32;;;7.00;99.90;;;;;;5049319;28;20099;-71
2022/04/04 10:24:13;;;;;;;19.70;4.45;;;7.10;99.90;;;;;;5069825;28;20020;-71
2022/04/04 10:26:39;;;;;;;20.10;4.18;;;7.10;99.90;;;;;;5066087;28;20028;-71
2022/04/04 10:29:16;;;;;;;16.02;3.85;;;7.20;99.90;;;;;;5047474;28;20064;-70
2022/04/04 10:31:50;;;;;;;18.38;4.40;;;7.20;99.90;;;;;;5064900;28;20111;-71
2022/04/04 10:34:21;;;;;;;17.47;3.97;;;7.20;99.90;;;;;;5049908;28;20029;-71
2022/04/04 10:37:08;;;;;;;18.77;4.22;;;7.20;99.90;;;;;;5071964;28;20025;-71
2022/04/04 10:39:48;;;;;;;21.45;4.43;;;7.30;99.90;;;;;;5071565;28;20091;-71
2022/04/04 10:42:31;;;;;;;23.88;4.53;;;7.30;99.90;;;;;;5071122;28;20479;-71
2022/04/04 10:45:12;;;;;;;21.70;4.00;;;7.40;99.90;;;;;;5071940;28;20039;-71
2022/04/04 10:47:44;;;;;;;16.90;4.05;;;7.40;99.90;;;;;;5071075;28;20538;-73
2022/04/04 10:50:18;;;;;;;25.65;4.63;;;7.40;99.90;;;;;;5061063;28;20027;-71
2022/04/04 10:52:45;;;;;;;21.63;4.20;;;7.50;99.90;;;;;;5056890;28;20100;-71
2022/04/04 10:55:30;;;;;;;20.00;4.22;;;7.50;99.90;;;;;;5051838;28;20033;-71
2022/04/04 10:58:05;;;;;;;20.50;4.00;;;7.50;99.90;;;;;;5051829;28;20093;-71
2022/04/04 11:00:31;;;;;;;;;;;7.50;99.90;;;;;;5052391;28;20044;-72
2022/04/04 11:02:58;;;;;;;18.23;3.20;;;7.50;99.90;;;;;;5051983;28;19905;-71
2022/04/04 11:09:12;;;;;;;24.52;3.97;;;7.60;99.90;;;;;;5058509;28;20462;-72
2022/04/04 11:11:55;;;;;;;17.88;3.00;;;7.60;99.90;;;;;;5063107;28;20027;-71
2022/04/04 11:14:26;;;;;;;14.38;2.80;;;7.60;99.90;;;;;;5033369;28;20641;-71
2022/04/04 11:17:11;;;;;;;16.13;3.13;;;7.60;99.90;;;;;;5051206;28;20049;-72
2022/04/04 11:20:10;;;;;;;14.90;3.00;;;7.70;99.90;;;;;;5061836;28;20020;-71
2022/04/04 11:22:43;;;;;;;13.98;2.95;;;7.70;99.90;;;;;;5065925;28;20286;-71
2022/04/04 11:25:37;;;;;;;14.25;2.88;;;7.80;99.90;;;;;;5072848;28;20085;-72
2022/04/04 11:28:07;;;;;;;12.55;2.88;;;7.80;99.90;;;;;;5045596;28;20065;-73
2022/04/04 11:30:33;;;;;;;16.88;2.97;;;7.80;99.90;;;;;;5061452;28;20366;-72
2022/04/04 11:32:59;;;;;;;13.00;2.88;;;7.80;99.90;;;;;;5058834;28;20528;-73
2022/04/04 11:35:34;;;;;;;9.00;2.33;;;7.80;99.90;;;;;;5065370;28;20403;-72
2022/04/04 11:37:59;;;;;;;13.00;2.40;;;7.80;99.90;;;;;;5063371;28;20528;-72
2022/04/04 11:40:37;;;;;;;11.05;2.92;;;7.90;99.90;;;;;;5066935;28;20029;-71
2022/04/04 11:43:10;;;;;;;10.15;2.33;;;7.90;99.90;;;;;;5059707;28;20032;-72
2022/04/04 11:45:52;;;;;;;15.07;2.85;;;7.90;99.90;;;;;;5056487;28;20127;-72
2022/04/04 11:48:23;;;;;;;15.20;3.30;;;7.90;99.90;;;;;;5051881;28;20521;-72
2022/04/04 11:50:56;;;;;;;10.55;2.90;;;7.90;99.90;;;;;;5058476;28;20028;-71
2022/04/04 11:53:25;;;;;;;11.02;2.45;;;8.00;99.90;;;;;;5072177;28;20031;-72
2022/04/04 11:56:20;;;;;;;11.63;2.55;;;7.90;99.90;;;;;;5072109;28;20032;-72
2022/04/04 11:58:54;;;;;;;8.55;2.50;;;8.00;99.90;;;;;;5057178;28;20658;-71
2022/04/04 12:01:19;;;;;;;7.78;2.55;;;8.00;99.90;;;;;;5065437;28;20483;-72
2022/04/04 12:03:49;;;;;;;10.40;2.58;;;8.00;99.90;;;;;;5041462;28;20054;-71
2022/04/04 12:06:41;;;;;;;8.95;2.55;;;8.00;99.90;;;;;;5066278;28;20349;-72
2022/04/04 12:09:28;;;;;;;9.15;2.45;;;8.00;99.90;;;;;;5067948;28;20036;-71
2022/04/04 12:12:01;;;;;;;7.25;2.45;;;8.00;99.90;;;;;;5043154;28;20115;-71
2022/04/04 12:14:34;;;;;;;6.35;2.47;;;8.00;99.90;;;;;;5060851;28;20032;-72
2022/04/04 12:17:00;;;;;;;7.07;2.70;;;8.00;99.90;;;;;;5061853;28;20058;-72
2022/04/04 12:19:27;;;;;;;9.80;3.17;;;8.10;99.90;;;;;;5066978;28;20040;-72
2022/04/04 12:21:53;;;;;;;6.15;2.70;;;8.10;99.90;;;;;;5065261;28;20020;-73
2022/04/04 12:27:14;;;;;;;5.00;2.80;;;8.20;99.90;;;;;;5063467;28;20428;-72
2022/04/04 12:29:45;;;;;;;7.60;3.38;;;8.10;99.90;;;;;;5060288;28;20025;-72
2022/04/04 12:32:20;;;;;;;8.98;3.05;;;8.20;99.90;;;;;;5062093;28;20040;-72
2022/04/04 12:34:55;;;;;;;7.75;3.58;;;8.20;99.90;;;;;;5058892;28;20028;-73
2022/04/04 12:37:32;;;;;;;12.57;3.83;;;8.20;99.90;;;;;;5054717;28;20017;-73
2022/04/04 12:40:18;;;;;;;8.25;3.78;;;8.20;99.90;;;;;;5056912;28;20056;-73
2022/04/04 12:42:43;;;;;;;;;;;8.20;99.90;;;;;;5062983;28;20020;-72
2022/04/04 12:45:11;;;;;;;10.85;3.95;;;8.20;99.90;;;;;;5061530;28;20361;-74
2022/04/04 12:48:10;;;;;;;11.32;4.65;;;8.20;99.90;;;;;;5058683;28;20472;-71
2022/04/04 12:50:38;;;;;;;13.05;4.57;;;8.20;99.90;;;;;;5060034;28;20037;-72
2022/04/04 12:53:07;;;;;;;12.00;5.32;;;8.20;99.90;;;;;;5064061;28;20097;-72
2022/04/04 12:55:34;;;;;;;13.65;5.65;;;8.30;99.90;;;;;;5060336;28;20020;-72
2022/04/04 12:58:23;;;;;;;14.75;5.85;;;8.30;99.90;;;;;;5051818;28;20024;-72
2022/04/04 13:00:50;;;;;;;14.57;5.90;;;8.30;99.90;;;;;;5062300;28;20358;-72